Terminal Aerodrome Forecast
Issued by NWS Charleston, WV

Current Version | Previous Version | Graphics & Text | Print | Product List | Glossary On
Versions: 1 2 3 4 5 6 7 8 9 10 11 12 13 14 15 16 17 18 19 20 21 22 23 24
000
FTUS41 KRLX 160250 AAA
TAFBKW
TAF AMD
KBKW 160250Z 1603/1624 29009G15KT 6SM -SHRA BKN007 BKN015 OVC025
     FM160500 31009G15KT P6SM BKN010 OVC020
     FM161600 33008KT P6SM SCT025=

USA.gov is the U.S. government's official web portal to all federal, state and local government web resources and services.